sensor_id;sensor_type;location;lat;lon;timestamp;P1;durP1;ratioP1;P2;durP2;ratioP2
60416;SDS011;46263;44.726;10.396;2024-01-15T00:00:41;68.40;;;32.60;;
60416;SDS011;46263;44.726;10.396;2024-01-15T00:03:07;79.47;;;33.88;;
60416;SDS011;46263;44.726;10.396;2024-01-15T00:05:33;63.63;;;31.83;;
60416;SDS011;46263;44.726;10.396;2024-01-15T00:07:58;80.13;;;34.25;;
60416;SDS011;46263;44.726;10.396;2024-01-15T00:10:24;69.35;;;31.60;;
60416;SDS011;46263;44.726;10.396;2024-01-15T00:12:49;71.95;;;31.92;;
60416;SDS011;46263;44.726;10.396;2024-01-15T00:15:15;90.28;;;38.80;;
60416;SDS011;46263;44.726;10.396;2024-01-15T00:17:40;83.78;;;35.38;;
60416;SDS011;46263;44.726;10.396;2024-01-15T00:20:06;82.43;;;34.50;;
60416;SDS011;46263;44.726;10.396;2024-01-15T00:22:32;77.88;;;36.05;;
60416;SDS011;46263;44.726;10.396;2024-01-15T00:24:57;74.47;;;32.90;;
60416;SDS011;46263;44.726;10.396;2024-01-15T00:27:23;78.30;;;31.58;;
60416;SDS011;46263;44.726;10.396;2024-01-15T00:29:49;79.88;;;34.55;;
60416;SDS011;46263;44.726;10.396;2024-01-15T00:32:15;73.90;;;31.27;;
60416;SDS011;46263;44.726;10.396;2024-01-15T00:34:41;72.18;;;32.22;;
60416;SDS011;46263;44.726;10.396;2024-01-15T00:37:07;78.93;;;33.15;;
60416;SDS011;46263;44.726;10.396;2024-01-15T00:39:32;78.88;;;33.15;;
60416;SDS011;46263;44.726;10.396;2024-01-15T00:41:58;64.22;;;30.63;;
60416;SDS011;46263;44.726;10.396;2024-01-15T00:44:23;74.93;;;29.98;;
60416;SDS011;46263;44.726;10.396;2024-01-15T00:46:49;70.95;;;30.67;;
60416;SDS011;46263;44.726;10.396;2024-01-15T00:49:14;71.78;;;31.92;;
60416;SDS011;46263;44.726;10.396;2024-01-15T00:51:41;60.22;;;30.17;;
60416;SDS011;46263;44.726;10.396;2024-01-15T00:54:06;68.00;;;30.35;;
60416;SDS011;46263;44.726;10.396;2024-01-15T00:56:32;65.88;;;29.98;;
60416;SDS011;46263;44.726;10.396;2024-01-15T00:58:57;60.33;;;29.85;;
60416;SDS011;46263;44.726;10.396;2024-01-15T01:01:23;61.10;;;29.88;;
60416;SDS011;46263;44.726;10.396;2024-01-15T01:03:48;57.90;;;29.40;;
60416;SDS011;46263;44.726;10.396;2024-01-15T01:06:14;59.92;;;30.02;;
60416;SDS011;46263;44.726;10.396;2024-01-15T01:08:39;51.30;;;28.77;;
60416;SDS011;46263;44.726;10.396;2024-01-15T01:11:05;60.90;;;29.42;;
60416;SDS011;46263;44.726;10.396;2024-01-15T01:13:32;60.42;;;29.05;;
60416;SDS011;46263;44.726;10.396;2024-01-15T01:15:57;59.30;;;28.35;;
60416;SDS011;46263;44.726;10.396;2024-01-15T01:18:23;63.13;;;29.08;;
60416;SDS011;46263;44.726;10.396;2024-01-15T01:20:49;58.35;;;29.17;;
60416;SDS011;46263;44.726;10.396;2024-01-15T01:23:14;56.40;;;27.90;;
60416;SDS011;46263;44.726;10.396;2024-01-15T01:25:40;58.50;;;29.23;;
60416;SDS011;46263;44.726;10.396;2024-01-15T01:28:05;55.17;;;26.65;;
60416;SDS011;46263;44.726;10.396;2024-01-15T01:30:31;53.70;;;28.63;;
60416;SDS011;46263;44.726;10.396;2024-01-15T01:32:56;56.55;;;28.60;;
60416;SDS011;46263;44.726;10.396;2024-01-15T01:35:22;50.50;;;27.02;;
60416;SDS011;46263;44.726;10.396;2024-01-15T01:37:48;53.25;;;28.08;;
60416;SDS011;46263;44.726;10.396;2024-01-15T01:40:13;50.75;;;27.60;;
60416;SDS011;46263;44.726;10.396;2024-01-15T01:42:39;56.58;;;27.33;;
60416;SDS011;46263;44.726;10.396;2024-01-15T01:45:04;53.72;;;27.52;;
60416;SDS011;46263;44.726;10.396;2024-01-15T01:47:30;49.38;;;24.85;;
60416;SDS011;46263;44.726;10.396;2024-01-15T01:49:57;59.88;;;26.15;;
60416;SDS011;46263;44.726;10.396;2024-01-15T01:52:22;50.78;;;26.55;;
60416;SDS011;46263;44.726;10.396;2024-01-15T01:54:49;55.58;;;27.50;;
60416;SDS011;46263;44.726;10.396;2024-01-15T01:57:14;53.47;;;26.60;;
60416;SDS011;46263;44.726;10.396;2024-01-15T01:59:41;53.75;;;26.75;;
60416;SDS011;46263;44.726;10.396;2024-01-15T02:02:07;51.10;;;25.92;;
60416;SDS011;46263;44.726;10.396;2024-01-15T02:04:33;52.83;;;25.42;;
60416;SDS011;46263;44.726;10.396;2024-01-15T02:06:59;50.00;;;25.90;;
60416;SDS011;46263;44.726;10.396;2024-01-15T02:09:25;46.35;;;25.83;;
60416;SDS011;46263;44.726;10.396;2024-01-15T02:11:51;48.30;;;25.90;;
60416;SDS011;46263;44.726;10.396;2024-01-15T02:14:16;50.67;;;27.30;;
60416;SDS011;46263;44.726;10.396;2024-01-15T02:16:42;50.78;;;24.88;;
60416;SDS011;46263;44.726;10.396;2024-01-15T02:19:14;52.55;;;27.38;;
60416;SDS011;46263;44.726;10.396;2024-01-15T02:21:41;54.03;;;27.73;;
60416;SDS011;46263;44.726;10.396;2024-01-15T02:24:06;54.92;;;28.65;;
60416;SDS011;46263;44.726;10.396;2024-01-15T02:26:31;61.00;;;29.90;;
60416;SDS011;46263;44.726;10.396;2024-01-15T02:29:00;56.30;;;29.33;;
60416;SDS011;46263;44.726;10.396;2024-01-15T02:31:26;56.45;;;28.60;;
60416;SDS011;46263;44.726;10.396;2024-01-15T02:33:52;62.25;;;29.85;;
60416;SDS011;46263;44.726;10.396;2024-01-15T02:36:17;66.32;;;30.17;;
60416;SDS011;46263;44.726;10.396;2024-01-15T02:38:43;63.60;;;29.63;;
60416;SDS011;46263;44.726;10.396;2024-01-15T02:41:08;66.50;;;30.58;;
60416;SDS011;46263;44.726;10.396;2024-01-15T02:43:34;63.55;;;29.63;;
60416;SDS011;46263;44.726;10.396;2024-01-15T02:45:59;73.57;;;32.70;;
60416;SDS011;46263;44.726;10.396;2024-01-15T02:48:24;58.10;;;29.13;;
60416;SDS011;46263;44.726;10.396;2024-01-15T02:50:50;60.38;;;30.55;;
60416;SDS011;46263;44.726;10.396;2024-01-15T02:53:15;82.32;;;35.97;;
60416;SDS011;46263;44.726;10.396;2024-01-15T02:55:41;65.60;;;31.10;;
60416;SDS011;46263;44.726;10.396;2024-01-15T02:58:07;64.32;;;30.02;;
60416;SDS011;46263;44.726;10.396;2024-01-15T03:00:33;63.20;;;29.45;;
60416;SDS011;46263;44.726;10.396;2024-01-15T03:02:58;67.90;;;29.42;;
60416;SDS011;46263;44.726;10.396;2024-01-15T03:05:24;59.17;;;29.40;;
60416;SDS011;46263;44.726;10.396;2024-01-15T03:07:49;57.85;;;29.55;;
60416;SDS011;46263;44.726;10.396;2024-01-15T03:10:14;61.63;;;29.50;;
60416;SDS011;46263;44.726;10.396;2024-01-15T03:12:40;55.03;;;27.83;;
60416;SDS011;46263;44.726;10.396;2024-01-15T03:15:05;66.30;;;30.20;;
60416;SDS011;46263;44.726;10.396;2024-01-15T03:17:31;63.38;;;28.45;;
60416;SDS011;46263;44.726;10.396;2024-01-15T03:19:56;59.47;;;29.70;;
60416;SDS011;46263;44.726;10.396;2024-01-15T03:22:22;54.28;;;27.55;;
60416;SDS011;46263;44.726;10.396;2024-01-15T03:24:47;47.53;;;26.13;;
60416;SDS011;46263;44.726;10.396;2024-01-15T03:27:13;58.40;;;27.77;;
60416;SDS011;46263;44.726;10.396;2024-01-15T03:29:39;55.35;;;27.50;;
60416;SDS011;46263;44.726;10.396;2024-01-15T03:32:05;59.92;;;28.95;;
60416;SDS011;46263;44.726;10.396;2024-01-15T03:34:30;52.72;;;28.73;;
60416;SDS011;46263;44.726;10.396;2024-01-15T03:36:56;49.42;;;26.92;;
60416;SDS011;46263;44.726;10.396;2024-01-15T03:39:21;49.88;;;26.88;;
60416;SDS011;46263;44.726;10.396;2024-01-15T03:41:47;54.45;;;26.70;;
60416;SDS011;46263;44.726;10.396;2024-01-15T03:44:12;48.95;;;26.70;;
60416;SDS011;46263;44.726;10.396;2024-01-15T03:46:37;59.00;;;27.00;;
60416;SDS011;46263;44.726;10.396;2024-01-15T03:49:04;51.67;;;27.60;;
60416;SDS011;46263;44.726;10.396;2024-01-15T03:51:29;58.15;;;26.85;;
60416;SDS011;46263;44.726;10.396;2024-01-15T03:53:55;49.40;;;25.60;;
60416;SDS011;46263;44.726;10.396;2024-01-15T03:56:20;50.05;;;26.02;;
60416;SDS011;46263;44.726;10.396;2024-01-15T03:58:45;50.67;;;27.83;;
60416;SDS011;46263;44.726;10.396;2024-01-15T04:01:11;53.80;;;26.70;;
60416;SDS011;46263;44.726;10.396;2024-01-15T04:03:37;48.22;;;26.60;;
60416;SDS011;46263;44.726;10.396;2024-01-15T04:06:05;57.33;;;28.63;;
60416;SDS011;46263;44.726;10.396;2024-01-15T04:08:31;56.75;;;27.75;;
60416;SDS011;46263;44.726;10.396;2024-01-15T04:10:56;59.67;;;28.23;;
60416;SDS011;46263;44.726;10.396;2024-01-15T04:13:22;59.20;;;28.63;;
60416;SDS011;46263;44.726;10.396;2024-01-15T04:15:48;59.30;;;29.27;;
60416;SDS011;46263;44.726;10.396;2024-01-15T04:18:13;58.15;;;28.50;;
60416;SDS011;46263;44.726;10.396;2024-01-15T04:20:40;58.50;;;29.02;;
60416;SDS011;46263;44.726;10.396;2024-01-15T04:23:06;53.33;;;27.15;;
60416;SDS011;46263;44.726;10.396;2024-01-15T04:25:31;64.45;;;29.30;;
60416;SDS011;46263;44.726;10.396;2024-01-15T04:27:57;57.25;;;28.33;;
60416;SDS011;46263;44.726;10.396;2024-01-15T04:30:22;59.47;;;29.90;;
60416;SDS011;46263;44.726;10.396;2024-01-15T04:32:48;64.28;;;30.63;;
60416;SDS011;46263;44.726;10.396;2024-01-15T04:35:13;52.25;;;28.75;;
60416;SDS011;46263;44.726;10.396;2024-01-15T04:37:39;61.65;;;29.52;;
60416;SDS011;46263;44.726;10.396;2024-01-15T04:40:05;59.42;;;28.40;;
60416;SDS011;46263;44.726;10.396;2024-01-15T04:42:31;58.47;;;29.00;;
60416;SDS011;46263;44.726;10.396;2024-01-15T04:44:56;63.17;;;30.27;;
60416;SDS011;46263;44.726;10.396;2024-01-15T04:47:22;69.95;;;31.00;;
60416;SDS011;46263;44.726;10.396;2024-01-15T04:49:47;65.63;;;31.58;;
60416;SDS011;46263;44.726;10.396;2024-01-15T04:52:14;70.50;;;31.52;;
60416;SDS011;46263;44.726;10.396;2024-01-15T04:54:39;65.65;;;31.00;;
60416;SDS011;46263;44.726;10.396;2024-01-15T04:57:05;73.10;;;31.85;;
60416;SDS011;46263;44.726;10.396;2024-01-15T04:59:31;71.97;;;32.63;;
60416;SDS011;46263;44.726;10.396;2024-01-15T05:01:56;71.63;;;33.08;;
60416;SDS011;46263;44.726;10.396;2024-01-15T05:04:21;74.30;;;32.47;;
60416;SDS011;46263;44.726;10.396;2024-01-15T05:06:47;68.35;;;32.05;;
60416;SDS011;46263;44.726;10.396;2024-01-15T05:09:12;70.80;;;32.17;;
60416;SDS011;46263;44.726;10.396;2024-01-15T05:11:38;71.35;;;33.65;;
60416;SDS011;46263;44.726;10.396;2024-01-15T05:14:04;66.80;;;32.10;;
60416;SDS011;46263;44.726;10.396;2024-01-15T05:16:30;68.53;;;32.03;;
60416;SDS011;46263;44.726;10.396;2024-01-15T05:18:55;60.97;;;30.83;;
60416;SDS011;46263;44.726;10.396;2024-01-15T05:21:20;61.78;;;32.00;;
60416;SDS011;46263;44.726;10.396;2024-01-15T05:23:46;69.38;;;32.92;;
60416;SDS011;46263;44.726;10.396;2024-01-15T05:26:11;72.20;;;34.80;;
60416;SDS011;46263;44.726;10.396;2024-01-15T05:28:37;74.78;;;34.40;;
60416;SDS011;46263;44.726;10.396;2024-01-15T05:31:02;77.75;;;33.97;;
60416;SDS011;46263;44.726;10.396;2024-01-15T05:33:29;74.82;;;34.05;;
60416;SDS011;46263;44.726;10.396;2024-01-15T05:35:54;78.13;;;34.63;;
60416;SDS011;46263;44.726;10.396;2024-01-15T05:38:20;70.38;;;33.22;;
60416;SDS011;46263;44.726;10.396;2024-01-15T05:40:46;76.75;;;33.17;;
60416;SDS011;46263;44.726;10.396;2024-01-15T05:43:11;80.22;;;32.72;;
60416;SDS011;46263;44.726;10.396;2024-01-15T05:45:38;75.70;;;32.13;;
60416;SDS011;46263;44.726;10.396;2024-01-15T05:48:03;73.20;;;31.60;;
60416;SDS011;46263;44.726;10.396;2024-01-15T05:50:29;70.38;;;32.08;;
60416;SDS011;46263;44.726;10.396;2024-01-15T05:52:55;69.05;;;31.80;;
60416;SDS011;46263;44.726;10.396;2024-01-15T05:55:20;72.57;;;31.90;;
60416;SDS011;46263;44.726;10.396;2024-01-15T05:57:46;72.53;;;32.35;;
60416;SDS011;46263;44.726;10.396;2024-01-15T06:00:11;66.30;;;31.10;;
60416;SDS011;46263;44.726;10.396;2024-01-15T06:02:37;66.75;;;31.33;;
60416;SDS011;46263;44.726;10.396;2024-01-15T06:05:04;76.35;;;32.22;;
60416;SDS011;46263;44.726;10.396;2024-01-15T06:07:31;70.88;;;33.17;;
60416;SDS011;46263;44.726;10.396;2024-01-15T06:09:57;64.72;;;30.25;;
60416;SDS011;46263;44.726;10.396;2024-01-15T06:12:23;71.78;;;30.90;;
60416;SDS011;46263;44.726;10.396;2024-01-15T06:14:48;71.72;;;31.48;;
60416;SDS011;46263;44.726;10.396;2024-01-15T06:17:13;77.35;;;33.45;;
60416;SDS011;46263;44.726;10.396;2024-01-15T06:19:39;77.80;;;33.40;;
60416;SDS011;46263;44.726;10.396;2024-01-15T06:22:04;69.20;;;31.55;;
60416;SDS011;46263;44.726;10.396;2024-01-15T06:24:30;75.97;;;32.13;;
60416;SDS011;46263;44.726;10.396;2024-01-15T06:26:55;67.70;;;32.03;;
60416;SDS011;46263;44.726;10.396;2024-01-15T06:29:21;68.63;;;31.30;;
60416;SDS011;46263;44.726;10.396;2024-01-15T06:31:46;70.72;;;32.70;;
60416;SDS011;46263;44.726;10.396;2024-01-15T06:34:12;69.75;;;31.00;;
60416;SDS011;46263;44.726;10.396;2024-01-15T06:36:37;63.13;;;30.23;;
60416;SDS011;46263;44.726;10.396;2024-01-15T06:39:03;58.35;;;28.70;;
60416;SDS011;46263;44.726;10.396;2024-01-15T06:41:29;62.20;;;29.80;;
60416;SDS011;46263;44.726;10.396;2024-01-15T06:43:54;62.85;;;29.92;;
60416;SDS011;46263;44.726;10.396;2024-01-15T06:46:21;67.82;;;30.63;;
60416;SDS011;46263;44.726;10.396;2024-01-15T06:48:47;68.90;;;31.02;;
60416;SDS011;46263;44.726;10.396;2024-01-15T06:51:12;66.60;;;30.80;;
60416;SDS011;46263;44.726;10.396;2024-01-15T06:53:38;65.05;;;30.67;;
60416;SDS011;46263;44.726;10.396;2024-01-15T06:56:04;61.38;;;29.42;;
60416;SDS011;46263;44.726;10.396;2024-01-15T06:58:33;65.95;;;29.33;;
60416;SDS011;46263;44.726;10.396;2024-01-15T07:00:59;64.13;;;31.25;;
60416;SDS011;46263;44.726;10.396;2024-01-15T07:03:24;57.88;;;28.50;;
60416;SDS011;46263;44.726;10.396;2024-01-15T07:05:50;56.42;;;29.25;;
60416;SDS011;46263;44.726;10.396;2024-01-15T07:08:15;55.78;;;29.35;;
60416;SDS011;46263;44.726;10.396;2024-01-15T07:10:41;57.97;;;30.77;;
60416;SDS011;46263;44.726;10.396;2024-01-15T07:13:06;59.10;;;28.38;;
60416;SDS011;46263;44.726;10.396;2024-01-15T07:15:32;55.72;;;30.75;;
60416;SDS011;46263;44.726;10.396;2024-01-15T07:17:57;60.35;;;29.05;;
60416;SDS011;46263;44.726;10.396;2024-01-15T07:20:23;63.15;;;33.25;;
60416;SDS011;46263;44.726;10.396;2024-01-15T07:22:48;59.70;;;28.60;;
60416;SDS011;46263;44.726;10.396;2024-01-15T07:25:15;60.65;;;29.70;;
60416;SDS011;46263;44.726;10.396;2024-01-15T07:27:40;55.97;;;28.92;;
60416;SDS011;46263;44.726;10.396;2024-01-15T07:30:09;56.85;;;29.30;;
60416;SDS011;46263;44.726;10.396;2024-01-15T07:32:35;53.13;;;27.45;;
60416;SDS011;46263;44.726;10.396;2024-01-15T07:35:01;54.38;;;27.70;;
60416;SDS011;46263;44.726;10.396;2024-01-15T07:37:26;63.03;;;29.00;;
60416;SDS011;46263;44.726;10.396;2024-01-15T07:39:52;62.03;;;30.35;;
60416;SDS011;46263;44.726;10.396;2024-01-15T07:42:17;60.65;;;29.60;;
60416;SDS011;46263;44.726;10.396;2024-01-15T07:44:43;56.88;;;28.33;;
60416;SDS011;46263;44.726;10.396;2024-01-15T07:47:08;57.25;;;28.85;;
60416;SDS011;46263;44.726;10.396;2024-01-15T07:49:34;51.42;;;27.20;;
60416;SDS011;46263;44.726;10.396;2024-01-15T07:52:00;54.17;;;27.88;;
60416;SDS011;46263;44.726;10.396;2024-01-15T07:54:26;55.25;;;28.90;;
60416;SDS011;46263;44.726;10.396;2024-01-15T07:56:59;56.85;;;28.00;;
60416;SDS011;46263;44.726;10.396;2024-01-15T07:59:26;59.05;;;29.40;;
60416;SDS011;46263;44.726;10.396;2024-01-15T08:01:52;57.85;;;29.10;;
60416;SDS011;46263;44.726;10.396;2024-01-15T08:04:18;53.13;;;27.70;;
60416;SDS011;46263;44.726;10.396;2024-01-15T08:06:44;56.58;;;29.38;;
60416;SDS011;46263;44.726;10.396;2024-01-15T08:09:10;54.28;;;28.88;;
60416;SDS011;46263;44.726;10.396;2024-01-15T08:11:36;61.17;;;29.20;;
60416;SDS011;46263;44.726;10.396;2024-01-15T08:14:04;57.45;;;30.05;;
60416;SDS011;46263;44.726;10.396;2024-01-15T08:16:29;53.08;;;29.35;;
60416;SDS011;46263;44.726;10.396;2024-01-15T08:18:55;55.60;;;29.33;;
60416;SDS011;46263;44.726;10.396;2024-01-15T08:21:20;55.20;;;29.02;;
60416;SDS011;46263;44.726;10.396;2024-01-15T08:23:46;50.90;;;27.80;;
60416;SDS011;46263;44.726;10.396;2024-01-15T08:26:11;60.38;;;29.40;;
60416;SDS011;46263;44.726;10.396;2024-01-15T08:28:37;51.97;;;26.88;;
60416;SDS011;46263;44.726;10.396;2024-01-15T08:31:02;53.65;;;27.80;;
60416;SDS011;46263;44.726;10.396;2024-01-15T08:33:28;60.17;;;29.65;;
60416;SDS011;46263;44.726;10.396;2024-01-15T08:35:54;56.03;;;28.27;;
60416;SDS011;46263;44.726;10.396;2024-01-15T08:38:20;52.33;;;29.30;;
60416;SDS011;46263;44.726;10.396;2024-01-15T08:40:45;52.08;;;28.38;;
60416;SDS011;46263;44.726;10.396;2024-01-15T08:43:11;56.83;;;29.58;;
60416;SDS011;46263;44.726;10.396;2024-01-15T08:45:37;59.80;;;29.88;;
60416;SDS011;46263;44.726;10.396;2024-01-15T08:48:02;53.42;;;29.17;;
60416;SDS011;46263;44.726;10.396;2024-01-15T08:50:28;52.10;;;28.25;;
60416;SDS011;46263;44.726;10.396;2024-01-15T08:52:54;59.80;;;29.55;;
60416;SDS011;46263;44.726;10.396;2024-01-15T08:55:20;51.95;;;29.45;;
60416;SDS011;46263;44.726;10.396;2024-01-15T08:57:47;63.25;;;32.05;;
60416;SDS011;46263;44.726;10.396;2024-01-15T09:00:13;56.45;;;29.45;;
60416;SDS011;46263;44.726;10.396;2024-01-15T09:02:39;52.88;;;29.52;;
60416;SDS011;46263;44.726;10.396;2024-01-15T09:05:05;57.70;;;30.75;;
60416;SDS011;46263;44.726;10.396;2024-01-15T09:07:31;53.10;;;28.90;;
60416;SDS011;46263;44.726;10.396;2024-01-15T09:09:57;61.25;;;28.35;;
60416;SDS011;46263;44.726;10.396;2024-01-15T09:12:24;49.67;;;27.73;;
60416;SDS011;46263;44.726;10.396;2024-01-15T09:14:50;53.17;;;27.80;;
60416;SDS011;46263;44.726;10.396;2024-01-15T09:17:17;49.58;;;27.58;;
60416;SDS011;46263;44.726;10.396;2024-01-15T09:19:42;52.15;;;28.98;;
60416;SDS011;46263;44.726;10.396;2024-01-15T09:22:08;56.28;;;29.25;;
60416;SDS011;46263;44.726;10.396;2024-01-15T09:24:33;54.65;;;28.48;;
60416;SDS011;46263;44.726;10.396;2024-01-15T09:26:59;52.30;;;29.08;;
60416;SDS011;46263;44.726;10.396;2024-01-15T09:29:25;50.38;;;27.50;;
60416;SDS011;46263;44.726;10.396;2024-01-15T09:31:50;52.10;;;28.83;;
60416;SDS011;46263;44.726;10.396;2024-01-15T09:34:17;49.45;;;28.02;;
60416;SDS011;46263;44.726;10.396;2024-01-15T09:36:42;52.08;;;28.25;;
60416;SDS011;46263;44.726;10.396;2024-01-15T09:39:08;53.80;;;29.40;;
60416;SDS011;46263;44.726;10.396;2024-01-15T09:41:36;48.80;;;28.23;;
60416;SDS011;46263;44.726;10.396;2024-01-15T09:44:02;54.35;;;29.52;;
60416;SDS011;46263;44.726;10.396;2024-01-15T09:46:28;50.17;;;29.05;;
60416;SDS011;46263;44.726;10.396;2024-01-15T09:48:58;55.97;;;28.95;;
60416;SDS011;46263;44.726;10.396;2024-01-15T09:51:24;53.13;;;28.83;;
60416;SDS011;46263;44.726;10.396;2024-01-15T09:53:50;52.08;;;28.65;;
60416;SDS011;46263;44.726;10.396;2024-01-15T09:56:16;55.97;;;30.13;;
60416;SDS011;46263;44.726;10.396;2024-01-15T09:58:42;49.80;;;28.42;;
60416;SDS011;46263;44.726;10.396;2024-01-15T10:01:08;51.25;;;28.90;;
60416;SDS011;46263;44.726;10.396;2024-01-15T10:03:36;53.47;;;28.85;;
60416;SDS011;46263;44.726;10.396;2024-01-15T10:06:04;49.38;;;27.05;;
60416;SDS011;46263;44.726;10.396;2024-01-15T10:08:30;51.88;;;29.52;;
60416;SDS011;46263;44.726;10.396;2024-01-15T10:10:57;53.17;;;29.30;;
60416;SDS011;46263;44.726;10.396;2024-01-15T10:13:25;55.67;;;29.40;;
60416;SDS011;46263;44.726;10.396;2024-01-15T10:15:53;49.70;;;29.88;;
60416;SDS011;46263;44.726;10.396;2024-01-15T10:18:18;53.55;;;28.13;;
60416;SDS011;46263;44.726;10.396;2024-01-15T10:20:44;47.67;;;27.15;;
60416;SDS011;46263;44.726;10.396;2024-01-15T10:23:10;51.42;;;29.65;;
60416;SDS011;46263;44.726;10.396;2024-01-15T10:25:35;50.83;;;26.98;;
60416;SDS011;46263;44.726;10.396;2024-01-15T10:28:02;49.53;;;28.05;;
60416;SDS011;46263;44.726;10.396;2024-01-15T10:30:28;53.03;;;27.48;;
60416;SDS011;46263;44.726;10.396;2024-01-15T10:33:01;52.88;;;28.33;;
60416;SDS011;46263;44.726;10.396;2024-01-15T10:35:30;47.33;;;27.10;;
60416;SDS011;46263;44.726;10.396;2024-01-15T10:37:56;54.55;;;28.90;;
60416;SDS011;46263;44.726;10.396;2024-01-15T10:40:22;53.50;;;27.98;;
60416;SDS011;46263;44.726;10.396;2024-01-15T10:42:48;50.33;;;27.98;;
60416;SDS011;46263;44.726;10.396;2024-01-15T10:45:14;53.60;;;29.58;;
60416;SDS011;46263;44.726;10.396;2024-01-15T10:47:40;52.58;;;28.80;;
60416;SDS011;46263;44.726;10.396;2024-01-15T10:50:07;52.55;;;27.88;;
60416;SDS011;46263;44.726;10.396;2024-01-15T10:52:35;53.58;;;28.75;;
60416;SDS011;46263;44.726;10.396;2024-01-15T10:55:01;48.30;;;28.05;;
60416;SDS011;46263;44.726;10.396;2024-01-15T10:57:28;54.28;;;27.73;;
60416;SDS011;46263;44.726;10.396;2024-01-15T10:59:54;48.60;;;28.38;;
60416;SDS011;46263;44.726;10.396;2024-01-15T11:02:20;52.15;;;28.15;;
60416;SDS011;46263;44.726;10.396;2024-01-15T11:04:46;49.75;;;28.02;;
60416;SDS011;46263;44.726;10.396;2024-01-15T11:07:11;43.45;;;26.63;;
60416;SDS011;46263;44.726;10.396;2024-01-15T11:09:38;61.08;;;29.85;;
60416;SDS011;46263;44.726;10.396;2024-01-15T11:12:09;46.00;;;26.80;;
60416;SDS011;46263;44.726;10.396;2024-01-15T11:14:39;51.47;;;29.15;;
60416;SDS011;46263;44.726;10.396;2024-01-15T11:17:08;51.57;;;28.70;;
60416;SDS011;46263;44.726;10.396;2024-01-15T11:19:35;50.88;;;28.17;;
60416;SDS011;46263;44.726;10.396;2024-01-15T11:22:47;50.03;;;28.20;;
60416;SDS011;46263;44.726;10.396;2024-01-15T11:25:13;49.20;;;29.88;;
60416;SDS011;46263;44.726;10.396;2024-01-15T11:27:40;55.92;;;30.40;;
60416;SDS011;46263;44.726;10.396;2024-01-15T11:30:07;48.97;;;30.20;;
60416;SDS011;46263;44.726;10.396;2024-01-15T11:32:36;47.65;;;26.75;;
60416;SDS011;46263;44.726;10.396;2024-01-15T11:35:06;50.10;;;27.63;;
60416;SDS011;46263;44.726;10.396;2024-01-15T11:40:43;48.55;;;26.95;;
60416;SDS011;46263;44.726;10.396;2024-01-15T11:43:11;48.00;;;26.98;;
60416;SDS011;46263;44.726;10.396;2024-01-15T11:45:38;45.95;;;27.05;;
60416;SDS011;46263;44.726;10.396;2024-01-15T11:50:39;46.33;;;26.77;;
60416;SDS011;46263;44.726;10.396;2024-01-15T11:53:10;43.22;;;27.10;;
60416;SDS011;46263;44.726;10.396;2024-01-15T11:55:43;47.15;;;25.77;;
60416;SDS011;46263;44.726;10.396;2024-01-15T11:58:10;42.17;;;25.42;;
60416;SDS011;46263;44.726;10.396;2024-01-15T12:00:47;46.45;;;25.55;;
60416;SDS011;46263;44.726;10.396;2024-01-15T12:03:17;42.88;;;26.48;;
60416;SDS011;46263;44.726;10.396;2024-01-15T12:05:45;49.88;;;27.33;;
60416;SDS011;46263;44.726;10.396;2024-01-15T12:08:10;45.30;;;26.73;;
60416;SDS011;46263;44.726;10.396;2024-01-15T12:10:36;42.95;;;25.63;;
60416;SDS011;46263;44.726;10.396;2024-01-15T12:15:39;46.60;;;26.27;;
60416;SDS011;46263;44.726;10.396;2024-01-15T12:18:09;47.72;;;25.45;;
60416;SDS011;46263;44.726;10.396;2024-01-15T12:20:35;42.83;;;25.00;;
60416;SDS011;46263;44.726;10.396;2024-01-15T12:23:01;42.38;;;25.20;;
60416;SDS011;46263;44.726;10.396;2024-01-15T12:25:32;40.88;;;23.88;;
60416;SDS011;46263;44.726;10.396;2024-01-15T12:27:59;46.55;;;26.42;;
60416;SDS011;46263;44.726;10.396;2024-01-15T12:30:26;44.80;;;25.98;;
60416;SDS011;46263;44.726;10.396;2024-01-15T12:32:53;42.00;;;24.80;;
60416;SDS011;46263;44.726;10.396;2024-01-15T12:35:19;38.88;;;23.10;;
60416;SDS011;46263;44.726;10.396;2024-01-15T12:37:45;40.83;;;24.92;;
60416;SDS011;46263;44.726;10.396;2024-01-15T12:40:13;44.53;;;24.15;;
60416;SDS011;46263;44.726;10.396;2024-01-15T12:42:44;42.95;;;25.88;;
60416;SDS011;46263;44.726;10.396;2024-01-15T12:45:11;42.40;;;24.67;;
60416;SDS011;46263;44.726;10.396;2024-01-15T12:47:38;47.10;;;25.63;;
60416;SDS011;46263;44.726;10.396;2024-01-15T12:50:10;48.83;;;25.20;;
60416;SDS011;46263;44.726;10.396;2024-01-15T12:52:37;43.20;;;25.63;;
60416;SDS011;46263;44.726;10.396;2024-01-15T12:55:05;45.58;;;26.40;;
60416;SDS011;46263;44.726;10.396;2024-01-15T12:57:32;41.30;;;25.58;;
60416;SDS011;46263;44.726;10.396;2024-01-15T12:59:57;42.83;;;25.63;;
60416;SDS011;46263;44.726;10.396;2024-01-15T13:02:23;50.88;;;26.77;;
60416;SDS011;46263;44.726;10.396;2024-01-15T13:04:48;42.05;;;25.70;;
60416;SDS011;46263;44.726;10.396;2024-01-15T13:07:14;45.88;;;25.67;;
60416;SDS011;46263;44.726;10.396;2024-01-15T13:09:39;43.58;;;25.58;;
60416;SDS011;46263;44.726;10.396;2024-01-15T13:12:05;44.60;;;26.00;;
60416;SDS011;46263;44.726;10.396;2024-01-15T13:14:31;39.97;;;23.58;;
60416;SDS011;46263;44.726;10.396;2024-01-15T13:16:57;42.55;;;25.63;;
60416;SDS011;46263;44.726;10.396;2024-01-15T13:19:24;42.45;;;24.65;;
60416;SDS011;46263;44.726;10.396;2024-01-15T13:21:50;39.30;;;24.90;;
60416;SDS011;46263;44.726;10.396;2024-01-15T13:24:19;38.25;;;24.17;;
60416;SDS011;46263;44.726;10.396;2024-01-15T13:26:47;41.95;;;24.27;;
60416;SDS011;46263;44.726;10.396;2024-01-15T13:29:13;47.20;;;25.85;;
60416;SDS011;46263;44.726;10.396;2024-01-15T13:31:39;42.55;;;23.70;;
60416;SDS011;46263;44.726;10.396;2024-01-15T13:34:05;39.17;;;24.15;;
60416;SDS011;46263;44.726;10.396;2024-01-15T13:36:32;37.28;;;23.10;;
60416;SDS011;46263;44.726;10.396;2024-01-15T13:38:57;40.92;;;23.70;;
60416;SDS011;46263;44.726;10.396;2024-01-15T13:41:24;40.88;;;23.65;;
60416;SDS011;46263;44.726;10.396;2024-01-15T13:43:53;42.90;;;24.38;;
60416;SDS011;46263;44.726;10.396;2024-01-15T13:46:20;36.53;;;23.25;;
60416;SDS011;46263;44.726;10.396;2024-01-15T13:48:47;40.63;;;24.63;;
60416;SDS011;46263;44.726;10.396;2024-01-15T13:51:12;35.90;;;22.75;;
60416;SDS011;46263;44.726;10.396;2024-01-15T13:53:38;39.33;;;23.33;;
60416;SDS011;46263;44.726;10.396;2024-01-15T13:56:04;37.88;;;23.38;;
60416;SDS011;46263;44.726;10.396;2024-01-15T13:58:30;35.63;;;22.75;;
60416;SDS011;46263;44.726;10.396;2024-01-15T14:00:56;36.53;;;22.98;;
60416;SDS011;46263;44.726;10.396;2024-01-15T14:03:22;39.75;;;23.73;;
60416;SDS011;46263;44.726;10.396;2024-01-15T14:05:47;39.72;;;23.65;;
60416;SDS011;46263;44.726;10.396;2024-01-15T14:08:12;38.83;;;23.67;;
60416;SDS011;46263;44.726;10.396;2024-01-15T14:10:38;42.10;;;25.05;;